sensor_id;sensor_type;location;lat;lon;timestamp;P1;durP1;ratioP1;P2;durP2;ratioP2
38264;SDS011;24062;47.480;8.768;2022-07-18T00:02:05;10.37;;;2.50;;
38264;SDS011;24062;47.480;8.768;2022-07-18T00:04:32;12.80;;;2.87;;
38264;SDS011;24062;47.480;8.768;2022-07-18T00:06:59;11.30;;;2.77;;
38264;SDS011;24062;47.480;8.768;2022-07-18T00:09:25;12.33;;;2.50;;
38264;SDS011;24062;47.480;8.768;2022-07-18T00:11:53;11.50;;;2.80;;
38264;SDS011;24062;47.480;8.768;2022-07-18T00:14:20;12.13;;;2.73;;
38264;SDS011;24062;47.480;8.768;2022-07-18T00:16:47;11.73;;;2.90;;
38264;SDS011;24062;47.480;8.768;2022-07-18T00:19:16;12.60;;;3.37;;
38264;SDS011;24062;47.480;8.768;2022-07-18T00:21:43;12.67;;;2.53;;
38264;SDS011;24062;47.480;8.768;2022-07-18T00:24:10;11.93;;;3.03;;
38264;SDS011;24062;47.480;8.768;2022-07-18T00:26:37;12.50;;;2.90;;
38264;SDS011;24062;47.480;8.768;2022-07-18T00:29:04;11.00;;;2.90;;
38264;SDS011;24062;47.480;8.768;2022-07-18T00:31:31;15.43;;;2.70;;
38264;SDS011;24062;47.480;8.768;2022-07-18T00:33:58;12.37;;;3.00;;
38264;SDS011;24062;47.480;8.768;2022-07-18T00:36:26;11.17;;;2.70;;
38264;SDS011;24062;47.480;8.768;2022-07-18T00:38:53;11.07;;;2.97;;
38264;SDS011;24062;47.480;8.768;2022-07-18T00:41:20;12.87;;;2.70;;
38264;SDS011;24062;47.480;8.768;2022-07-18T00:43:47;13.17;;;2.47;;
38264;SDS011;24062;47.480;8.768;2022-07-18T00:46:14;13.67;;;3.00;;
38264;SDS011;24062;47.480;8.768;2022-07-18T00:48:42;12.10;;;2.77;;
38264;SDS011;24062;47.480;8.768;2022-07-18T00:51:09;11.97;;;2.97;;
38264;SDS011;24062;47.480;8.768;2022-07-18T00:53:37;11.73;;;3.00;;
38264;SDS011;24062;47.480;8.768;2022-07-18T00:56:05;11.90;;;3.57;;
38264;SDS011;24062;47.480;8.768;2022-07-18T00:58:32;12.20;;;3.17;;
38264;SDS011;24062;47.480;8.768;2022-07-18T01:01:00;10.80;;;2.73;;
38264;SDS011;24062;47.480;8.768;2022-07-18T01:03:44;10.60;;;2.60;;
38264;SDS011;24062;47.480;8.768;2022-07-18T01:06:11;11.13;;;2.73;;
38264;SDS011;24062;47.480;8.768;2022-07-18T01:08:41;11.57;;;2.67;;
38264;SDS011;24062;47.480;8.768;2022-07-18T01:11:09;12.03;;;3.40;;
38264;SDS011;24062;47.480;8.768;2022-07-18T01:13:37;12.77;;;3.33;;
38264;SDS011;24062;47.480;8.768;2022-07-18T01:16:04;11.23;;;2.53;;
38264;SDS011;24062;47.480;8.768;2022-07-18T01:18:31;11.50;;;2.43;;
38264;SDS011;24062;47.480;8.768;2022-07-18T01:21:00;10.83;;;2.63;;
38264;SDS011;24062;47.480;8.768;2022-07-18T01:23:26;11.73;;;2.50;;
38264;SDS011;24062;47.480;8.768;2022-07-18T01:25:53;11.33;;;2.70;;
38264;SDS011;24062;47.480;8.768;2022-07-18T01:28:20;11.67;;;3.50;;
38264;SDS011;24062;47.480;8.768;2022-07-18T01:30:47;10.30;;;2.57;;
38264;SDS011;24062;47.480;8.768;2022-07-18T01:33:14;13.13;;;3.00;;
38264;SDS011;24062;47.480;8.768;2022-07-18T01:35:41;12.37;;;3.10;;
38264;SDS011;24062;47.480;8.768;2022-07-18T01:38:10;12.00;;;3.40;;
38264;SDS011;24062;47.480;8.768;2022-07-18T01:40:37;11.10;;;3.20;;
38264;SDS011;24062;47.480;8.768;2022-07-18T01:43:04;11.17;;;2.70;;
38264;SDS011;24062;47.480;8.768;2022-07-18T01:45:32;15.10;;;2.90;;
38264;SDS011;24062;47.480;8.768;2022-07-18T01:47:59;13.10;;;3.00;;
38264;SDS011;24062;47.480;8.768;2022-07-18T01:50:26;15.10;;;2.80;;
38264;SDS011;24062;47.480;8.768;2022-07-18T01:52:53;11.40;;;2.87;;
38264;SDS011;24062;47.480;8.768;2022-07-18T01:55:21;10.87;;;2.60;;
38264;SDS011;24062;47.480;8.768;2022-07-18T01:57:48;12.63;;;2.80;;
38264;SDS011;24062;47.480;8.768;2022-07-18T02:00:15;11.60;;;3.00;;
38264;SDS011;24062;47.480;8.768;2022-07-18T02:02:41;10.60;;;3.07;;
38264;SDS011;24062;47.480;8.768;2022-07-18T02:05:08;12.20;;;3.10;;
38264;SDS011;24062;47.480;8.768;2022-07-18T02:07:36;17.30;;;3.00;;
38264;SDS011;24062;47.480;8.768;2022-07-18T02:10:05;10.87;;;3.07;;
38264;SDS011;24062;47.480;8.768;2022-07-18T02:12:35;11.93;;;3.10;;
38264;SDS011;24062;47.480;8.768;2022-07-18T02:15:03;11.77;;;2.97;;
38264;SDS011;24062;47.480;8.768;2022-07-18T02:17:30;11.10;;;3.03;;
38264;SDS011;24062;47.480;8.768;2022-07-18T02:19:57;11.50;;;3.20;;
38264;SDS011;24062;47.480;8.768;2022-07-18T02:22:24;11.40;;;3.20;;
38264;SDS011;24062;47.480;8.768;2022-07-18T02:24:51;10.87;;;3.10;;
38264;SDS011;24062;47.480;8.768;2022-07-18T02:27:18;13.70;;;3.47;;
38264;SDS011;24062;47.480;8.768;2022-07-18T02:29:47;12.33;;;3.43;;
38264;SDS011;24062;47.480;8.768;2022-07-18T02:32:14;10.70;;;2.90;;
38264;SDS011;24062;47.480;8.768;2022-07-18T02:34:41;14.10;;;3.10;;
38264;SDS011;24062;47.480;8.768;2022-07-18T02:37:08;10.80;;;2.83;;
38264;SDS011;24062;47.480;8.768;2022-07-18T02:39:35;15.37;;;3.60;;
38264;SDS011;24062;47.480;8.768;2022-07-18T02:42:03;11.80;;;2.83;;
38264;SDS011;24062;47.480;8.768;2022-07-18T02:44:30;11.33;;;2.93;;
38264;SDS011;24062;47.480;8.768;2022-07-18T02:46:59;14.70;;;3.50;;
38264;SDS011;24062;47.480;8.768;2022-07-18T02:49:26;12.07;;;2.80;;
38264;SDS011;24062;47.480;8.768;2022-07-18T02:51:53;12.33;;;3.73;;
38264;SDS011;24062;47.480;8.768;2022-07-18T02:54:22;11.70;;;3.50;;
38264;SDS011;24062;47.480;8.768;2022-07-18T02:56:50;11.37;;;2.90;;
38264;SDS011;24062;47.480;8.768;2022-07-18T02:59:17;12.53;;;2.90;;
38264;SDS011;24062;47.480;8.768;2022-07-18T03:01:44;13.40;;;3.50;;
38264;SDS011;24062;47.480;8.768;2022-07-18T03:04:12;12.70;;;3.67;;
38264;SDS011;24062;47.480;8.768;2022-07-18T03:06:39;11.60;;;3.20;;
38264;SDS011;24062;47.480;8.768;2022-07-18T03:09:06;11.60;;;3.33;;
38264;SDS011;24062;47.480;8.768;2022-07-18T03:11:34;12.10;;;2.93;;
38264;SDS011;24062;47.480;8.768;2022-07-18T03:14:01;15.63;;;3.00;;
38264;SDS011;24062;47.480;8.768;2022-07-18T03:16:28;11.40;;;3.13;;
38264;SDS011;24062;47.480;8.768;2022-07-18T03:18:55;11.23;;;2.83;;
38264;SDS011;24062;47.480;8.768;2022-07-18T03:21:23;11.17;;;2.90;;
38264;SDS011;24062;47.480;8.768;2022-07-18T03:23:50;10.73;;;3.00;;
38264;SDS011;24062;47.480;8.768;2022-07-18T03:26:17;11.30;;;3.30;;
38264;SDS011;24062;47.480;8.768;2022-07-18T03:28:44;15.60;;;3.67;;
38264;SDS011;24062;47.480;8.768;2022-07-18T03:31:11;11.27;;;2.83;;
38264;SDS011;24062;47.480;8.768;2022-07-18T03:33:38;13.87;;;3.40;;
38264;SDS011;24062;47.480;8.768;2022-07-18T03:36:05;11.33;;;3.27;;
38264;SDS011;24062;47.480;8.768;2022-07-18T03:38:33;12.63;;;3.70;;
38264;SDS011;24062;47.480;8.768;2022-07-18T03:41:02;12.73;;;3.33;;
38264;SDS011;24062;47.480;8.768;2022-07-18T03:43:29;12.37;;;3.43;;
38264;SDS011;24062;47.480;8.768;2022-07-18T03:45:56;13.73;;;3.67;;
38264;SDS011;24062;47.480;8.768;2022-07-18T03:48:23;11.67;;;3.00;;
38264;SDS011;24062;47.480;8.768;2022-07-18T03:50:50;12.43;;;3.30;;
38264;SDS011;24062;47.480;8.768;2022-07-18T03:53:17;11.27;;;3.53;;
38264;SDS011;24062;47.480;8.768;2022-07-18T03:55:45;12.00;;;3.80;;
38264;SDS011;24062;47.480;8.768;2022-07-18T03:58:12;13.40;;;3.83;;
38264;SDS011;24062;47.480;8.768;2022-07-18T04:00:39;12.87;;;4.03;;
38264;SDS011;24062;47.480;8.768;2022-07-18T04:03:06;13.67;;;3.90;;
38264;SDS011;24062;47.480;8.768;2022-07-18T04:05:33;10.47;;;2.80;;
38264;SDS011;24062;47.480;8.768;2022-07-18T04:08:00;12.83;;;4.00;;
38264;SDS011;24062;47.480;8.768;2022-07-18T04:10:27;12.43;;;3.43;;
38264;SDS011;24062;47.480;8.768;2022-07-18T04:12:55;15.07;;;3.70;;
38264;SDS011;24062;47.480;8.768;2022-07-18T04:15:22;11.10;;;3.30;;
38264;SDS011;24062;47.480;8.768;2022-07-18T04:17:50;13.37;;;2.97;;
38264;SDS011;24062;47.480;8.768;2022-07-18T04:20:19;13.07;;;3.77;;
38264;SDS011;24062;47.480;8.768;2022-07-18T04:22:48;11.27;;;2.93;;
38264;SDS011;24062;47.480;8.768;2022-07-18T04:25:17;12.50;;;4.07;;
38264;SDS011;24062;47.480;8.768;2022-07-18T04:27:45;11.07;;;3.20;;
38264;SDS011;24062;47.480;8.768;2022-07-18T04:30:15;11.80;;;3.80;;
38264;SDS011;24062;47.480;8.768;2022-07-18T04:32:43;11.83;;;3.70;;
38264;SDS011;24062;47.480;8.768;2022-07-18T04:35:10;11.67;;;3.40;;
38264;SDS011;24062;47.480;8.768;2022-07-18T04:37:38;11.50;;;3.47;;
38264;SDS011;24062;47.480;8.768;2022-07-18T04:40:05;14.70;;;4.60;;
38264;SDS011;24062;47.480;8.768;2022-07-18T04:42:34;15.43;;;2.90;;
38264;SDS011;24062;47.480;8.768;2022-07-18T04:45:02;15.53;;;3.40;;
38264;SDS011;24062;47.480;8.768;2022-07-18T04:47:31;12.87;;;3.20;;
38264;SDS011;24062;47.480;8.768;2022-07-18T04:49:58;12.87;;;3.80;;
38264;SDS011;24062;47.480;8.768;2022-07-18T04:52:25;11.10;;;3.40;;
38264;SDS011;24062;47.480;8.768;2022-07-18T04:54:52;11.60;;;3.33;;
38264;SDS011;24062;47.480;8.768;2022-07-18T04:57:19;13.00;;;3.53;;
38264;SDS011;24062;47.480;8.768;2022-07-18T04:59:46;14.03;;;3.03;;
38264;SDS011;24062;47.480;8.768;2022-07-18T05:02:13;12.27;;;3.43;;
38264;SDS011;24062;47.480;8.768;2022-07-18T05:04:41;11.77;;;2.97;;
38264;SDS011;24062;47.480;8.768;2022-07-18T05:07:08;19.43;;;3.43;;
38264;SDS011;24062;47.480;8.768;2022-07-18T05:09:35;11.20;;;2.87;;
38264;SDS011;24062;47.480;8.768;2022-07-18T05:12:01;11.90;;;3.30;;
38264;SDS011;24062;47.480;8.768;2022-07-18T05:14:29;11.30;;;3.30;;
38264;SDS011;24062;47.480;8.768;2022-07-18T05:16:56;11.30;;;2.97;;
38264;SDS011;24062;47.480;8.768;2022-07-18T05:19:23;11.03;;;2.97;;
38264;SDS011;24062;47.480;8.768;2022-07-18T05:21:51;14.80;;;2.93;;
38264;SDS011;24062;47.480;8.768;2022-07-18T05:24:18;11.37;;;3.13;;
38264;SDS011;24062;47.480;8.768;2022-07-18T05:26:45;13.43;;;2.97;;
38264;SDS011;24062;47.480;8.768;2022-07-18T05:29:12;11.37;;;2.70;;
38264;SDS011;24062;47.480;8.768;2022-07-18T05:31:39;12.77;;;2.80;;
38264;SDS011;24062;47.480;8.768;2022-07-18T05:34:06;15.20;;;3.00;;
38264;SDS011;24062;47.480;8.768;2022-07-18T05:36:33;10.73;;;2.90;;
38264;SDS011;24062;47.480;8.768;2022-07-18T05:39:02;10.60;;;2.80;;
38264;SDS011;24062;47.480;8.768;2022-07-18T05:41:29;12.27;;;2.93;;
38264;SDS011;24062;47.480;8.768;2022-07-18T05:43:57;12.70;;;2.77;;
38264;SDS011;24062;47.480;8.768;2022-07-18T05:46:23;14.43;;;3.03;;
38264;SDS011;24062;47.480;8.768;2022-07-18T05:48:50;11.00;;;2.80;;
38264;SDS011;24062;47.480;8.768;2022-07-18T05:51:19;12.10;;;2.87;;
38264;SDS011;24062;47.480;8.768;2022-07-18T05:53:47;19.67;;;2.90;;
38264;SDS011;24062;47.480;8.768;2022-07-18T05:56:16;11.70;;;2.30;;
38264;SDS011;24062;47.480;8.768;2022-07-18T05:58:43;13.77;;;2.63;;
38264;SDS011;24062;47.480;8.768;2022-07-18T06:01:10;11.93;;;2.93;;
38264;SDS011;24062;47.480;8.768;2022-07-18T06:03:41;13.73;;;3.03;;
38264;SDS011;24062;47.480;8.768;2022-07-18T06:06:08;13.23;;;2.60;;
38264;SDS011;24062;47.480;8.768;2022-07-18T06:08:36;12.73;;;2.70;;
38264;SDS011;24062;47.480;8.768;2022-07-18T06:11:03;12.80;;;2.57;;
38264;SDS011;24062;47.480;8.768;2022-07-18T06:13:33;14.13;;;2.90;;
38264;SDS011;24062;47.480;8.768;2022-07-18T06:16:01;11.87;;;2.53;;
38264;SDS011;24062;47.480;8.768;2022-07-18T06:18:28;14.87;;;2.43;;
38264;SDS011;24062;47.480;8.768;2022-07-18T06:20:55;10.37;;;2.23;;
38264;SDS011;24062;47.480;8.768;2022-07-18T06:23:22;20.60;;;3.17;;
38264;SDS011;24062;47.480;8.768;2022-07-18T06:25:50;16.90;;;2.70;;
38264;SDS011;24062;47.480;8.768;2022-07-18T06:28:17;17.13;;;2.50;;
38264;SDS011;24062;47.480;8.768;2022-07-18T06:30:45;12.30;;;2.67;;
38264;SDS011;24062;47.480;8.768;2022-07-18T06:33:12;12.83;;;2.50;;
38264;SDS011;24062;47.480;8.768;2022-07-18T06:35:39;12.67;;;2.80;;
38264;SDS011;24062;47.480;8.768;2022-07-18T06:38:06;12.67;;;2.83;;
38264;SDS011;24062;47.480;8.768;2022-07-18T06:40:33;16.03;;;2.90;;
38264;SDS011;24062;47.480;8.768;2022-07-18T06:43:00;20.70;;;2.77;;
38264;SDS011;24062;47.480;8.768;2022-07-18T06:45:27;11.00;;;2.03;;
38264;SDS011;24062;47.480;8.768;2022-07-18T06:47:56;12.03;;;2.53;;
38264;SDS011;24062;47.480;8.768;2022-07-18T06:50:22;10.87;;;2.17;;
38264;SDS011;24062;47.480;8.768;2022-07-18T06:52:50;14.30;;;2.93;;
38264;SDS011;24062;47.480;8.768;2022-07-18T06:55:17;12.30;;;2.17;;
38264;SDS011;24062;47.480;8.768;2022-07-18T06:57:44;17.00;;;3.23;;
38264;SDS011;24062;47.480;8.768;2022-07-18T07:00:12;10.37;;;2.00;;
38264;SDS011;24062;47.480;8.768;2022-07-18T07:02:41;11.60;;;2.63;;
38264;SDS011;24062;47.480;8.768;2022-07-18T07:05:10;13.23;;;2.53;;
38264;SDS011;24062;47.480;8.768;2022-07-18T07:07:38;17.17;;;3.30;;
38264;SDS011;24062;47.480;8.768;2022-07-18T07:10:05;18.03;;;2.93;;
38264;SDS011;24062;47.480;8.768;2022-07-18T07:12:37;13.60;;;3.10;;
38264;SDS011;24062;47.480;8.768;2022-07-18T07:15:06;18.20;;;2.77;;
38264;SDS011;24062;47.480;8.768;2022-07-18T07:17:34;13.40;;;2.90;;
38264;SDS011;24062;47.480;8.768;2022-07-18T07:20:02;13.53;;;2.90;;
38264;SDS011;24062;47.480;8.768;2022-07-18T07:22:32;13.70;;;3.00;;
38264;SDS011;24062;47.480;8.768;2022-07-18T07:25:06;11.87;;;2.70;;
38264;SDS011;24062;47.480;8.768;2022-07-18T07:27:34;12.00;;;2.43;;
38264;SDS011;24062;47.480;8.768;2022-07-18T07:30:02;16.87;;;2.70;;
38264;SDS011;24062;47.480;8.768;2022-07-18T07:32:33;12.53;;;2.87;;
38264;SDS011;24062;47.480;8.768;2022-07-18T07:35:00;12.73;;;3.00;;
38264;SDS011;24062;47.480;8.768;2022-07-18T07:37:27;11.97;;;2.83;;
38264;SDS011;24062;47.480;8.768;2022-07-18T07:39:55;13.87;;;3.00;;
38264;SDS011;24062;47.480;8.768;2022-07-18T07:42:22;12.13;;;2.80;;
38264;SDS011;24062;47.480;8.768;2022-07-18T07:44:49;14.00;;;3.23;;
38264;SDS011;24062;47.480;8.768;2022-07-18T07:47:16;12.37;;;2.93;;
38264;SDS011;24062;47.480;8.768;2022-07-18T07:49:43;20.87;;;2.90;;
38264;SDS011;24062;47.480;8.768;2022-07-18T07:52:10;13.67;;;3.10;;
38264;SDS011;24062;47.480;8.768;2022-07-18T07:54:38;12.50;;;2.90;;
38264;SDS011;24062;47.480;8.768;2022-07-18T07:57:07;15.90;;;3.47;;
38264;SDS011;24062;47.480;8.768;2022-07-18T07:59:34;17.87;;;3.63;;
38264;SDS011;24062;47.480;8.768;2022-07-18T08:02:01;12.23;;;3.03;;
38264;SDS011;24062;47.480;8.768;2022-07-18T08:04:28;19.80;;;3.53;;
38264;SDS011;24062;47.480;8.768;2022-07-18T08:06:55;15.33;;;3.07;;
38264;SDS011;24062;47.480;8.768;2022-07-18T08:09:22;15.10;;;3.00;;
38264;SDS011;24062;47.480;8.768;2022-07-18T08:11:49;15.47;;;3.23;;
38264;SDS011;24062;47.480;8.768;2022-07-18T08:14:17;21.77;;;3.37;;
38264;SDS011;24062;47.480;8.768;2022-07-18T08:16:44;12.47;;;2.83;;
38264;SDS011;24062;47.480;8.768;2022-07-18T08:19:11;14.07;;;3.33;;
38264;SDS011;24062;47.480;8.768;2022-07-18T08:21:38;16.27;;;3.33;;
38264;SDS011;24062;47.480;8.768;2022-07-18T08:24:05;17.50;;;2.57;;
38264;SDS011;24062;47.480;8.768;2022-07-18T08:26:32;13.40;;;3.03;;
38264;SDS011;24062;47.480;8.768;2022-07-18T08:29:00;15.57;;;2.90;;
38264;SDS011;24062;47.480;8.768;2022-07-18T08:31:28;14.67;;;3.20;;
38264;SDS011;24062;47.480;8.768;2022-07-18T08:33:55;12.10;;;2.83;;
38264;SDS011;24062;47.480;8.768;2022-07-18T08:36:22;19.47;;;2.87;;
38264;SDS011;24062;47.480;8.768;2022-07-18T08:38:49;12.00;;;2.80;;
38264;SDS011;24062;47.480;8.768;2022-07-18T08:41:17;15.07;;;3.20;;
38264;SDS011;24062;47.480;8.768;2022-07-18T08:43:44;11.00;;;2.43;;
38264;SDS011;24062;47.480;8.768;2022-07-18T08:46:11;12.40;;;2.17;;
38264;SDS011;24062;47.480;8.768;2022-07-18T08:48:41;11.67;;;2.57;;
38264;SDS011;24062;47.480;8.768;2022-07-18T08:51:08;13.17;;;2.70;;
38264;SDS011;24062;47.480;8.768;2022-07-18T08:53:35;12.53;;;2.90;;
38264;SDS011;24062;47.480;8.768;2022-07-18T08:56:03;12.53;;;2.50;;
38264;SDS011;24062;47.480;8.768;2022-07-18T08:58:31;18.17;;;2.67;;
38264;SDS011;24062;47.480;8.768;2022-07-18T09:00:58;13.53;;;2.77;;
38264;SDS011;24062;47.480;8.768;2022-07-18T09:03:26;12.53;;;2.57;;
38264;SDS011;24062;47.480;8.768;2022-07-18T09:06:03;13.60;;;2.60;;
38264;SDS011;24062;47.480;8.768;2022-07-18T09:08:31;26.53;;;2.93;;
38264;SDS011;24062;47.480;8.768;2022-07-18T09:10:59;15.17;;;2.80;;
38264;SDS011;24062;47.480;8.768;2022-07-18T09:13:35;13.40;;;2.63;;
38264;SDS011;24062;47.480;8.768;2022-07-18T09:16:05;12.87;;;2.20;;
38264;SDS011;24062;47.480;8.768;2022-07-18T09:18:34;16.53;;;2.77;;
38264;SDS011;24062;47.480;8.768;2022-07-18T09:21:03;17.30;;;3.20;;
38264;SDS011;24062;47.480;8.768;2022-07-18T09:23:36;11.57;;;2.33;;
38264;SDS011;24062;47.480;8.768;2022-07-18T09:26:04;14.37;;;2.87;;
38264;SDS011;24062;47.480;8.768;2022-07-18T09:28:44;17.63;;;2.30;;
38264;SDS011;24062;47.480;8.768;2022-07-18T09:31:19;11.03;;;2.30;;
38264;SDS011;24062;47.480;8.768;2022-07-18T09:33:53;13.43;;;2.80;;
38264;SDS011;24062;47.480;8.768;2022-07-18T09:36:21;16.43;;;2.37;;
38264;SDS011;24062;47.480;8.768;2022-07-18T09:38:49;12.33;;;2.37;;
38264;SDS011;24062;47.480;8.768;2022-07-18T09:41:16;11.70;;;2.20;;
38264;SDS011;24062;47.480;8.768;2022-07-18T09:43:48;13.40;;;2.40;;
38264;SDS011;24062;47.480;8.768;2022-07-18T09:46:15;12.70;;;2.33;;
38264;SDS011;24062;47.480;8.768;2022-07-18T09:48:42;12.63;;;2.27;;
38264;SDS011;24062;47.480;8.768;2022-07-18T09:51:09;11.50;;;2.33;;
38264;SDS011;24062;47.480;8.768;2022-07-18T09:53:38;10.90;;;2.13;;
38264;SDS011;24062;47.480;8.768;2022-07-18T09:56:06;11.80;;;1.90;;
38264;SDS011;24062;47.480;8.768;2022-07-18T09:58:35;12.13;;;2.10;;
38264;SDS011;24062;47.480;8.768;2022-07-18T10:01:06;14.37;;;2.30;;
38264;SDS011;24062;47.480;8.768;2022-07-18T10:03:34;12.10;;;2.33;;
38264;SDS011;24062;47.480;8.768;2022-07-18T10:06:02;14.53;;;2.60;;
38264;SDS011;24062;47.480;8.768;2022-07-18T10:08:30;17.33;;;1.93;;
38264;SDS011;24062;47.480;8.768;2022-07-18T10:11:00;21.43;;;2.07;;
38264;SDS011;24062;47.480;8.768;2022-07-18T10:13:29;12.93;;;2.37;;
38264;SDS011;24062;47.480;8.768;2022-07-18T10:15:57;16.47;;;2.50;;
38264;SDS011;24062;47.480;8.768;2022-07-18T10:18:26;11.30;;;1.80;;
38264;SDS011;24062;47.480;8.768;2022-07-18T10:20:55;17.23;;;2.35;;
38264;SDS011;24062;47.480;8.768;2022-07-18T10:23:25;11.05;;;1.85;;
38264;SDS011;24062;47.480;8.768;2022-07-18T10:26:07;17.75;;;2.15;;
38264;SDS011;24062;47.480;8.768;2022-07-18T10:31:35;13.68;;;1.83;;
38264;SDS011;24062;47.480;8.768;2022-07-18T10:34:09;14.13;;;2.30;;
38264;SDS011;24062;47.480;8.768;2022-07-18T10:36:37;14.27;;;2.20;;
38264;SDS011;24062;47.480;8.768;2022-07-18T10:39:05;12.38;;;1.85;;
38264;SDS011;24062;47.480;8.768;2022-07-18T10:41:39;15.70;;;2.38;;
38264;SDS011;24062;47.480;8.768;2022-07-18T10:44:44;11.60;;;1.92;;
38264;SDS011;24062;47.480;8.768;2022-07-18T10:47:12;11.15;;;1.88;;
38264;SDS011;24062;47.480;8.768;2022-07-18T10:55:28;11.68;;;2.10;;
38264;SDS011;24062;47.480;8.768;2022-07-18T10:58:15;10.18;;;1.55;;
38264;SDS011;24062;47.480;8.768;2022-07-18T11:00:49;10.43;;;1.58;;
38264;SDS011;24062;47.480;8.768;2022-07-18T11:03:18;14.23;;;1.52;;
38264;SDS011;24062;47.480;8.768;2022-07-18T11:05:55;11.52;;;1.83;;
38264;SDS011;24062;47.480;8.768;2022-07-18T11:08:23;12.10;;;1.88;;
38264;SDS011;24062;47.480;8.768;2022-07-18T11:11:09;13.70;;;2.13;;
38264;SDS011;24062;47.480;8.768;2022-07-18T11:13:39;12.98;;;1.77;;
38264;SDS011;24062;47.480;8.768;2022-07-18T11:16:14;14.77;;;2.05;;
38264;SDS011;24062;47.480;8.768;2022-07-18T11:21:56;11.65;;;1.80;;
38264;SDS011;24062;47.480;8.768;2022-07-18T11:24:24;10.60;;;1.73;;
38264;SDS011;24062;47.480;8.768;2022-07-18T11:26:53;13.02;;;1.77;;
38264;SDS011;24062;47.480;8.768;2022-07-18T11:29:21;10.88;;;1.70;;
38264;SDS011;24062;47.480;8.768;2022-07-18T11:31:49;10.90;;;1.75;;
38264;SDS011;24062;47.480;8.768;2022-07-18T11:34:17;11.57;;;1.90;;
38264;SDS011;24062;47.480;8.768;2022-07-18T11:36:45;12.13;;;1.70;;
38264;SDS011;24062;47.480;8.768;2022-07-18T11:39:13;12.05;;;1.67;;
38264;SDS011;24062;47.480;8.768;2022-07-18T11:41:41;11.80;;;1.60;;
38264;SDS011;24062;47.480;8.768;2022-07-18T11:44:17;13.88;;;2.00;;
38264;SDS011;24062;47.480;8.768;2022-07-18T11:46:48;12.65;;;1.90;;
38264;SDS011;24062;47.480;8.768;2022-07-18T11:49:14;10.93;;;1.50;;
38264;SDS011;24062;47.480;8.768;2022-07-18T11:51:42;12.80;;;1.88;;
38264;SDS011;24062;47.480;8.768;2022-07-18T11:54:11;10.77;;;1.80;;
38264;SDS011;24062;47.480;8.768;2022-07-18T11:56:48;13.73;;;1.60;;
38264;SDS011;24062;47.480;8.768;2022-07-18T11:59:16;13.82;;;1.88;;
38264;SDS011;24062;47.480;8.768;2022-07-18T12:01:43;11.15;;;1.60;;
38264;SDS011;24062;47.480;8.768;2022-07-18T12:04:19;13.20;;;1.80;;
38264;SDS011;24062;47.480;8.768;2022-07-18T12:09:39;10.70;;;1.50;;
38264;SDS011;24062;47.480;8.768;2022-07-18T12:12:09;11.13;;;1.63;;
38264;SDS011;24062;47.480;8.768;2022-07-18T12:14:37;14.02;;;2.00;;
38264;SDS011;24062;47.480;8.768;2022-07-18T12:17:04;12.38;;;1.85;;
38264;SDS011;24062;47.480;8.768;2022-07-18T12:19:34;13.88;;;2.45;;
38264;SDS011;24062;47.480;8.768;2022-07-18T12:22:06;16.65;;;1.60;;
38264;SDS011;24062;47.480;8.768;2022-07-18T12:24:35;12.80;;;1.63;;
38264;SDS011;24062;47.480;8.768;2022-07-18T12:27:07;10.60;;;1.88;;
38264;SDS011;24062;47.480;8.768;2022-07-18T12:32:41;15.70;;;1.60;;
38264;SDS011;24062;47.480;8.768;2022-07-18T12:35:12;18.67;;;2.30;;
38264;SDS011;24062;47.480;8.768;2022-07-18T12:37:40;10.77;;;1.83;;
38264;SDS011;24062;47.480;8.768;2022-07-18T12:40:16;10.65;;;1.65;;
38264;SDS011;24062;47.480;8.768;2022-07-18T12:42:43;12.13;;;2.10;;
38264;SDS011;24062;47.480;8.768;2022-07-18T12:45:11;12.18;;;1.30;;
38264;SDS011;24062;47.480;8.768;2022-07-18T12:47:39;10.90;;;1.73;;
38264;SDS011;24062;47.480;8.768;2022-07-18T12:50:07;11.75;;;1.88;;
38264;SDS011;24062;47.480;8.768;2022-07-18T12:52:35;11.18;;;1.52;;
38264;SDS011;24062;47.480;8.768;2022-07-18T12:55:03;11.85;;;1.90;;
38264;SDS011;24062;47.480;8.768;2022-07-18T12:57:30;19.73;;;2.10;;
38264;SDS011;24062;47.480;8.768;2022-07-18T12:59:57;12.07;;;1.88;;
38264;SDS011;24062;47.480;8.768;2022-07-18T13:02:24;13.35;;;2.38;;
38264;SDS011;24062;47.480;8.768;2022-07-18T13:04:51;10.27;;;1.40;;
38264;SDS011;24062;47.480;8.768;2022-07-18T13:07:17;14.43;;;1.80;;
38264;SDS011;24062;47.480;8.768;2022-07-18T13:09:46;12.45;;;1.52;;
38264;SDS011;24062;47.480;8.768;2022-07-18T13:12:13;11.65;;;1.60;;
38264;SDS011;24062;47.480;8.768;2022-07-18T13:14:40;10.90;;;1.80;;
38264;SDS011;24062;47.480;8.768;2022-07-18T13:17:07;10.60;;;1.17;;
38264;SDS011;24062;47.480;8.768;2022-07-18T13:19:34;10.45;;;1.60;;
38264;SDS011;24062;47.480;8.768;2022-07-18T13:22:02;10.45;;;1.75;;
38264;SDS011;24062;47.480;8.768;2022-07-18T13:24:29;11.32;;;1.70;;
38264;SDS011;24062;47.480;8.768;2022-07-18T13:26:57;11.95;;;1.90;;
38264;SDS011;24062;47.480;8.768;2022-07-18T13:29:24;10.52;;;1.40;;
38264;SDS011;24062;47.480;8.768;2022-07-18T13:31:51;14.65;;;1.38;;
38264;SDS011;24062;47.480;8.768;2022-07-18T13:34:19;10.40;;;1.50;;
38264;SDS011;24062;47.480;8.768;2022-07-18T13:36:47;9.35;;;1.33;;
38264;SDS011;24062;47.480;8.768;2022-07-18T13:39:15;10.52;;;1.48;;
38264;SDS011;24062;47.480;8.768;2022-07-18T13:41:42;11.88;;;1.95;;
38264;SDS011;24062;47.480;8.768;2022-07-18T13:44:11;12.73;;;1.55;;
38264;SDS011;24062;47.480;8.768;2022-07-18T13:46:38;10.40;;;1.60;;
38264;SDS011;24062;47.480;8.768;2022-07-18T13:49:06;16.30;;;1.80;;
38264;SDS011;24062;47.480;8.768;2022-07-18T13:51:33;9.48;;;1.70;;
38264;SDS011;24062;47.480;8.768;2022-07-18T13:54:01;11.73;;;1.60;;
38264;SDS011;24062;47.480;8.768;2022-07-18T13:56:29;10.07;;;1.90;;
38264;SDS011;24062;47.480;8.768;2022-07-18T13:58:56;13.15;;;1.90;;
38264;SDS011;24062;47.480;8.768;2022-07-18T14:01:24;11.38;;;1.73;;
38264;SDS011;24062;47.480;8.768;2022-07-18T14:03:51;11.35;;;1.90;;
38264;SDS011;24062;47.480;8.768;2022-07-18T14:06:18;9.32;;;1.65;;
38264;SDS011;24062;47.480;8.768;2022-07-18T14:08:45;10.10;;;2.08;;
38264;SDS011;24062;47.480;8.768;2022-07-18T14:11:12;10.52;;;2.20;;
38264;SDS011;24062;47.480;8.768;2022-07-18T14:13:39;9.40;;;1.90;;
38264;SDS011;24062;47.480;8.768;2022-07-18T14:16:06;9.85;;;2.00;;
38264;SDS011;24062;47.480;8.768;2022-07-18T14:18:34;10.27;;;2.20;;
38264;SDS011;24062;47.480;8.768;2022-07-18T14:21:01;9.85;;;1.90;;
38264;SDS011;24062;47.480;8.768;2022-07-18T14:23:28;12.07;;;2.17;;
38264;SDS011;24062;47.480;8.768;2022-07-18T14:25:55;9.75;;;1.90;;
38264;SDS011;24062;47.480;8.768;2022-07-18T14:28:22;19.17;;;2.35;;
38264;SDS011;24062;47.480;8.768;2022-07-18T14:30:49;10.55;;;1.85;;
38264;SDS011;24062;47.480;8.768;2022-07-18T14:33:16;11.10;;;1.75;;
38264;SDS011;24062;47.480;8.768;2022-07-18T14:35:44;9.18;;;1.73;;
38264;SDS011;24062;47.480;8.768;2022-07-18T14:38:11;9.73;;;1.90;;
38264;SDS011;24062;47.480;8.768;2022-07-18T14:40:38;9.90;;;1.92;;
38264;SDS011;24062;47.480;8.768;2022-07-18T14:43:05;10.55;;;1.70;;
38264;SDS011;24062;47.480;8.768;2022-07-18T14:45:31;9.15;;;1.77;;
38264;SDS011;24062;47.480;8.768;2022-07-18T14:47:58;10.00;;;2.40;;
38264;SDS011;24062;47.480;8.768;2022-07-18T14:50:25;9.93;;;1.67;;
38264;SDS011;24062;47.480;8.768;2022-07-18T14:52:53;9.52;;;1.73;;
38264;SDS011;24062;47.480;8.768;2022-07-18T14:55:20;12.13;;;1.80;;
38264;SDS011;24062;47.480;8.768;2022-07-18T14:57:47;10.77;;;1.73;;
38264;SDS011;24062;47.480;8.768;2022-07-18T15:00:15;9.98;;;1.27;;